Time;durP1;ratioP1;P1;durP2;ratioP2;P2;SDS_P1;SDS_P2;PMS_P1;PMS_P2;Temp;Humidity;BMP_temperature;BMP_pressure;BME280_temperature;BME280_humidity;BME280_pressure;Samples;Min_cycle;Max_cycle;Signal;HPM_P1;HPM_P2
2021/10/16 00:02:17;;;;;;;7.97;7.20;;;14.40;59.70;;;;;;5052625;28;20195;-48
2021/10/16 00:04:43;;;;;;;9.57;6.30;;;14.50;59.60;;;;;;5052294;28;20212;-47
2021/10/16 00:07:08;;;;;;;8.20;7.40;;;14.50;59.40;;;;;;5052318;28;20189;-43
2021/10/16 00:09:34;;;;;;;9.03;6.53;;;14.50;59.10;;;;;;5052367;28;20242;-43
2021/10/16 00:11:59;;;;;;;8.37;7.10;;;14.50;59.00;;;;;;5052475;28;20203;-47
2021/10/16 00:14:25;;;;;;;8.87;7.63;;;14.50;59.10;;;;;;5052340;28;20272;-50
2021/10/16 00:16:50;;;;;;;14.17;7.33;;;14.50;59.00;;;;;;5052721;28;20196;-45
2021/10/16 00:19:16;;;;;;;7.87;7.07;;;14.60;58.90;;;;;;5050214;28;20225;-43
2021/10/16 00:21:42;;;;;;;8.63;7.83;;;14.50;58.90;;;;;;5052258;28;20818;-48
2021/10/16 00:24:08;;;;;;;7.27;6.57;;;14.50;59.00;;;;;;5050689;28;20542;-48
2021/10/16 00:26:33;;;;;;;7.93;6.97;;;14.50;59.00;;;;;;5052390;28;20196;-47
2021/10/16 00:28:59;;;;;;;9.77;7.67;;;14.40;59.00;;;;;;5051419;28;20235;-43
2021/10/16 00:31:25;;;;;;;7.40;6.70;;;14.40;59.00;;;;;;5051984;28;20688;-47
2021/10/16 00:33:50;;;;;;;7.40;6.47;;;14.40;59.10;;;;;;5052122;28;20636;-48
2021/10/16 00:36:16;;;;;;;8.07;7.27;;;14.40;59.10;;;;;;5051843;28;20277;-48
2021/10/16 00:38:41;;;;;;;7.20;6.23;;;14.40;59.20;;;;;;5051686;28;20192;-46
2021/10/16 00:41:09;;;;;;;7.87;6.83;;;14.30;59.20;;;;;;5051342;28;20185;-46
2021/10/16 00:43:34;;;;;;;8.60;7.07;;;14.30;59.30;;;;;;5052047;28;20220;-49
2021/10/16 00:46:00;;;;;;;7.90;7.07;;;14.30;59.50;;;;;;5051529;28;20493;-44
2021/10/16 00:48:25;;;;;;;10.13;7.53;;;14.30;59.60;;;;;;5050765;28;20184;-48
2021/10/16 00:50:52;;;;;;;7.17;6.47;;;14.20;59.90;;;;;;5049726;28;20238;-48
2021/10/16 00:53:18;;;;;;;7.83;7.07;;;14.00;60.40;;;;;;5052190;28;20267;-47
2021/10/16 00:55:44;;;;;;;7.73;6.90;;;13.90;61.20;;;;;;5051226;28;20435;-48
2021/10/16 00:58:11;;;;;;;13.87;7.23;;;13.70;61.90;;;;;;5049222;28;20926;-46
2021/10/16 01:00:36;;;;;;;8.50;7.60;;;13.90;61.90;;;;;;5051026;28;20578;-46
2021/10/16 01:03:03;;;;;;;9.90;7.80;;;13.80;61.90;;;;;;5051760;28;20843;-45
2021/10/16 01:05:28;;;;;;;9.47;7.07;;;13.80;62.00;;;;;;5051342;28;20426;-49
2021/10/16 01:07:54;;;;;;;12.13;8.83;;;14.00;61.70;;;;;;5051140;28;20513;-48
2021/10/16 01:10:20;;;;;;;10.20;8.60;;;13.90;61.20;;;;;;5051256;28;20188;-45
2021/10/16 01:12:47;;;;;;;8.60;7.47;;;13.90;61.60;;;;;;5051815;28;20231;-44
2021/10/16 01:15:16;;;;;;;8.33;7.50;;;13.90;61.70;;;;;;5050939;28;20203;-48
2021/10/16 01:17:46;;;;;;;7.80;7.00;;;14.00;61.30;;;;;;5049196;28;20802;-47
2021/10/16 01:20:18;;;;;;;8.60;7.60;;;13.80;61.90;;;;;;5050854;28;20573;-43
2021/10/16 01:22:45;;;;;;;7.10;6.40;;;13.80;62.40;;;;;;5051811;28;20430;-47
2021/10/16 01:25:13;;;;;;;8.17;7.37;;;13.90;62.00;;;;;;5050799;28;20423;-48
2021/10/16 01:27:39;;;;;;;8.27;7.37;;;14.00;61.60;;;;;;5050790;28;20415;-48
2021/10/16 01:30:11;;;;;;;9.00;7.40;;;14.10;61.30;;;;;;5051047;28;20419;-46
2021/10/16 01:32:38;;;;;;;7.33;6.40;;;14.00;61.00;;;;;;5051477;28;20438;-49
2021/10/16 01:35:07;;;;;;;13.17;8.87;;;14.00;60.90;;;;;;5051000;28;20455;-47
2021/10/16 01:37:33;;;;;;;27.37;15.20;;;14.00;61.20;;;;;;5050848;28;20431;-49
2021/10/16 01:39:58;;;;;;;15.43;10.87;;;14.10;61.00;;;;;;5050886;28;21039;-45
2021/10/16 01:42:24;;;;;;;9.23;7.77;;;14.10;60.60;;;;;;5051350;28;20188;-49
2021/10/16 01:44:50;;;;;;;15.10;8.97;;;14.20;60.40;;;;;;5049222;28;20271;-45
2021/10/16 01:47:15;;;;;;;7.63;6.83;;;14.20;60.10;;;;;;5050653;28;20196;-49
2021/10/16 01:49:41;;;;;;;7.40;6.70;;;14.20;60.00;;;;;;5050950;28;20759;-45
2021/10/16 01:52:07;;;;;;;9.10;7.00;;;14.20;59.70;;;;;;5051133;28;20193;-49
2021/10/16 01:54:33;;;;;;;9.00;6.93;;;14.20;59.70;;;;;;5050789;28;20279;-48
2021/10/16 01:56:58;;;;;;;7.83;7.03;;;14.10;59.60;;;;;;5048738;28;20278;-48
2021/10/16 01:59:26;;;;;;;8.03;6.40;;;14.10;59.70;;;;;;5050315;28;20587;-47
2021/10/16 02:01:55;;;;;;;7.00;6.30;;;14.10;59.60;;;;;;5055143;28;20246;-48
2021/10/16 02:04:21;;;;;;;10.80;6.80;;;14.10;59.60;;;;;;5054584;28;20800;-49
2021/10/16 02:06:47;;;;;;;8.97;7.07;;;14.10;59.60;;;;;;5054939;28;20434;-45
2021/10/16 02:09:13;;;;;;;7.40;6.70;;;14.10;59.60;;;;;;5053768;28;20423;-48
2021/10/16 02:11:39;;;;;;;7.23;6.53;;;14.10;59.70;;;;;;5053739;28;20267;-48
2021/10/16 02:14:07;;;;;;;9.30;7.00;;;14.10;59.80;;;;;;5054470;28;20192;-44
2021/10/16 02:16:33;;;;;;;7.30;6.47;;;14.00;60.20;;;;;;5054783;28;20915;-43
2021/10/16 02:18:59;;;;;;;7.17;6.47;;;14.00;60.40;;;;;;5053567;28;21067;-44
2021/10/16 02:21:26;;;;;;;8.43;6.73;;;14.00;60.40;;;;;;5054600;28;20497;-45
2021/10/16 02:23:52;;;;;;;7.87;7.00;;;14.10;60.40;;;;;;5054463;28;20415;-46
2021/10/16 02:26:17;;;;;;;6.50;5.93;;;14.10;60.20;;;;;;5054662;28;20477;-43
2021/10/16 02:28:43;;;;;;;6.97;6.20;;;14.10;60.00;;;;;;5054087;28;20624;-44
2021/10/16 02:31:09;;;;;;;10.07;7.17;;;14.10;59.80;;;;;;5054137;28;20601;-43
2021/10/16 02:33:35;;;;;;;7.87;6.80;;;14.10;59.90;;;;;;5054899;28;20431;-45
2021/10/16 02:36:00;;;;;;;8.20;7.10;;;14.10;59.80;;;;;;5053958;28;20185;-44
2021/10/16 02:38:26;;;;;;;6.93;6.00;;;14.20;59.90;;;;;;5052231;28;20649;-45
2021/10/16 02:40:52;;;;;;;7.80;6.83;;;14.10;59.80;;;;;;5053878;28;20232;-43
2021/10/16 02:43:17;;;;;;;10.23;7.77;;;14.10;60.00;;;;;;5054629;28;20674;-43
2021/10/16 02:45:43;;;;;;;7.27;6.57;;;14.10;60.40;;;;;;5053555;28;20203;-44
2021/10/16 02:48:09;;;;;;;11.40;6.60;;;14.10;60.70;;;;;;5053947;28;20631;-43
2021/10/16 02:50:34;;;;;;;10.60;7.10;;;14.10;60.40;;;;;;5053392;28;20597;-43
2021/10/16 02:53:00;;;;;;;9.00;8.10;;;14.10;60.10;;;;;;5054297;28;20199;-44
2021/10/16 02:55:25;;;;;;;8.17;7.40;;;14.10;60.00;;;;;;5053613;28;20618;-43
2021/10/16 02:57:51;;;;;;;10.10;6.17;;;14.10;60.00;;;;;;5051912;28;20189;-43
2021/10/16 03:00:17;;;;;;;10.40;7.17;;;14.10;60.10;;;;;;5053213;28;20228;-43
2021/10/16 03:02:42;;;;;;;6.90;6.30;;;14.10;60.20;;;;;;5053566;28;20197;-44
2021/10/16 03:05:08;;;;;;;7.50;6.80;;;14.10;60.40;;;;;;5052598;28;20546;-44
2021/10/16 03:07:34;;;;;;;8.77;7.17;;;14.10;60.40;;;;;;5053296;28;20284;-43
2021/10/16 03:09:59;;;;;;;8.63;6.20;;;14.10;60.40;;;;;;5053607;28;20938;-43
2021/10/16 03:12:25;;;;;;;7.70;6.90;;;14.10;60.60;;;;;;5053221;28;20213;-43
2021/10/16 03:14:51;;;;;;;8.93;7.40;;;14.10;60.60;;;;;;5053209;28;20200;-43
2021/10/16 03:17:17;;;;;;;8.23;6.23;;;14.10;60.40;;;;;;5053565;28;20200;-43
2021/10/16 03:19:43;;;;;;;7.70;6.60;;;14.00;60.70;;;;;;5053272;28;20490;-45
2021/10/16 03:22:09;;;;;;;8.47;7.60;;;13.90;60.90;;;;;;5053928;28;20563;-44
2021/10/16 03:24:35;;;;;;;8.23;6.83;;;13.40;62.20;;;;;;5052634;28;20431;-43
2021/10/16 03:27:03;;;;;;;7.90;6.50;;;13.30;63.20;;;;;;5053104;28;20267;-45
2021/10/16 03:29:29;;;;;;;8.27;7.37;;;13.40;63.30;;;;;;5051287;28;20431;-43
2021/10/16 03:31:55;;;;;;;8.10;7.10;;;13.60;62.80;;;;;;5053370;28;20518;-43
2021/10/16 03:34:21;;;;;;;7.57;6.40;;;13.80;62.40;;;;;;5053141;28;20189;-45
2021/10/16 03:36:46;;;;;;;10.23;6.77;;;13.80;61.80;;;;;;5053068;28;20262;-44
2021/10/16 03:39:12;;;;;;;7.53;6.80;;;13.90;61.40;;;;;;5052610;28;20232;-43
2021/10/16 03:41:38;;;;;;;9.30;6.47;;;14.00;62.20;;;;;;5053313;28;20697;-43
2021/10/16 03:44:04;;;;;;;10.73;7.00;;;14.00;61.30;;;;;;5052441;28;20198;-43
2021/10/16 03:46:29;;;;;;;9.80;6.70;;;14.10;61.30;;;;;;5053422;28;20201;-43
2021/10/16 03:48:55;;;;;;;7.30;6.60;;;14.10;61.20;;;;;;5052041;28;20274;-43
2021/10/16 03:51:21;;;;;;;7.17;6.47;;;14.10;61.10;;;;;;5053301;28;20246;-44
2021/10/16 03:53:47;;;;;;;8.57;6.30;;;14.10;60.90;;;;;;5053232;28;20197;-43
2021/10/16 03:56:13;;;;;;;7.93;7.13;;;14.00;60.90;;;;;;5050724;28;20473;-44
2021/10/16 03:58:38;;;;;;;7.70;6.73;;;14.00;61.30;;;;;;5050698;28;20193;-44
2021/10/16 04:01:04;;;;;;;8.03;6.77;;;14.00;61.20;;;;;;5052259;28;20184;-43
2021/10/16 04:03:30;;;;;;;7.30;6.60;;;13.90;61.20;;;;;;5052809;28;20223;-44
2021/10/16 04:05:57;;;;;;;8.63;7.00;;;13.80;61.70;;;;;;5052083;28;20427;-44
2021/10/16 04:08:22;;;;;;;7.87;7.17;;;13.80;62.00;;;;;;5052282;28;20456;-44
2021/10/16 04:10:49;;;;;;;7.93;7.00;;;13.90;61.80;;;;;;5052455;28;20430;-43
2021/10/16 04:13:15;;;;;;;8.70;7.30;;;13.90;61.50;;;;;;5052704;28;20435;-44
2021/10/16 04:15:41;;;;;;;7.07;6.43;;;14.00;61.30;;;;;;5052054;28;20427;-44
2021/10/16 04:18:06;;;;;;;6.80;6.10;;;14.00;61.00;;;;;;5052079;28;20434;-43
2021/10/16 04:20:33;;;;;;;8.30;6.90;;;13.90;61.30;;;;;;5051974;28;20224;-43
2021/10/16 04:22:59;;;;;;;8.97;7.47;;;13.90;61.10;;;;;;5050197;28;20334;-49
2021/10/16 04:25:24;;;;;;;7.73;6.70;;;13.90;60.90;;;;;;5051293;28;20522;-43
2021/10/16 04:27:51;;;;;;;6.80;5.73;;;13.60;62.40;;;;;;5052240;28;20287;-43
2021/10/16 04:30:17;;;;;;;7.10;5.73;;;13.40;62.70;;;;;;5051971;28;20275;-46
2021/10/16 04:32:43;;;;;;;6.77;6.10;;;13.40;63.00;;;;;;5052448;28;20528;-43
2021/10/16 04:35:09;;;;;;;8.97;6.90;;;13.40;63.20;;;;;;5051641;28;20477;-44
2021/10/16 04:37:36;;;;;;;8.37;7.00;;;13.60;62.90;;;;;;5051897;28;20254;-45
2021/10/16 04:40:17;;;;;;;8.27;7.40;;;13.60;62.40;;;;;;5051733;28;20474;-43
2021/10/16 04:42:43;;;;;;;9.07;8.07;;;13.60;62.40;;;;;;5051937;28;20496;-49
2021/10/16 04:45:09;;;;;;;7.63;6.43;;;13.70;61.90;;;;;;5051532;28;20418;-43
2021/10/16 04:47:35;;;;;;;8.90;6.93;;;13.70;61.50;;;;;;5051632;28;20427;-46
2021/10/16 04:50:01;;;;;;;6.43;5.83;;;13.80;61.40;;;;;;5050044;28;20953;-45
2021/10/16 04:52:27;;;;;;;8.33;6.60;;;13.80;61.40;;;;;;5052014;28;20200;-43
2021/10/16 04:54:52;;;;;;;8.87;6.43;;;13.80;61.40;;;;;;5051233;28;20188;-44
2021/10/16 04:57:18;;;;;;;7.83;6.63;;;13.80;61.40;;;;;;5049992;28;20984;-45
2021/10/16 04:59:43;;;;;;;8.03;6.17;;;13.80;61.40;;;;;;5051266;28;20263;-48
2021/10/16 05:02:09;;;;;;;7.70;6.27;;;13.80;61.70;;;;;;5051828;28;20256;-43
2021/10/16 05:04:34;;;;;;;9.00;7.50;;;13.80;61.50;;;;;;5051284;28;20195;-43
2021/10/16 05:07:00;;;;;;;10.43;7.70;;;13.80;61.50;;;;;;5051202;28;20188;-44
2021/10/16 05:09:25;;;;;;;8.67;7.53;;;13.70;61.70;;;;;;5051273;28;20210;-43
2021/10/16 05:11:51;;;;;;;8.83;6.60;;;13.60;62.10;;;;;;5051804;28;20242;-46
2021/10/16 05:14:17;;;;;;;7.97;7.20;;;13.60;62.10;;;;;;5051051;28;20401;-43
2021/10/16 05:16:43;;;;;;;8.20;7.30;;;13.60;62.00;;;;;;5049725;28;20203;-43
2021/10/16 05:19:08;;;;;;;9.83;8.47;;;13.70;62.00;;;;;;5051200;28;20578;-45
2021/10/16 05:21:34;;;;;;;8.17;7.30;;;13.70;61.80;;;;;;5051467;28;20276;-43
2021/10/16 05:23:59;;;;;;;8.17;7.37;;;13.80;61.80;;;;;;5050801;28;20193;-44
2021/10/16 05:26:25;;;;;;;7.30;6.60;;;13.80;61.80;;;;;;5051643;28;20274;-43
2021/10/16 05:28:51;;;;;;;7.70;7.07;;;13.80;61.60;;;;;;5050935;28;20227;-44
2021/10/16 05:31:16;;;;;;;7.10;6.50;;;13.80;61.60;;;;;;5051013;28;20914;-43
2021/10/16 05:33:42;;;;;;;7.70;6.90;;;13.80;61.90;;;;;;5051290;28;20239;-45
2021/10/16 05:36:08;;;;;;;9.43;8.13;;;13.80;62.00;;;;;;5054007;28;20219;-43
2021/10/16 05:38:33;;;;;;;8.63;7.83;;;13.70;62.30;;;;;;5055301;28;20216;-45
2021/10/16 05:40:59;;;;;;;8.47;7.53;;;13.40;63.20;;;;;;5054775;28;20334;-46
2021/10/16 05:43:25;;;;;;;8.47;7.50;;;13.40;63.40;;;;;;5053976;28;20193;-43
2021/10/16 05:45:50;;;;;;;8.30;7.50;;;13.20;64.40;;;;;;5054998;28;20189;-43
2021/10/16 05:48:16;;;;;;;8.10;7.40;;;13.30;64.60;;;;;;5054854;28;20204;-43
2021/10/16 05:50:42;;;;;;;10.93;8.43;;;13.50;64.30;;;;;;5054389;28;20314;-48
2021/10/16 05:53:07;;;;;;;12.53;8.10;;;13.60;63.80;;;;;;5055249;28;20219;-44
2021/10/16 05:55:33;;;;;;;10.00;9.00;;;13.50;63.60;;;;;;5054522;28;20427;-44
2021/10/16 05:57:58;;;;;;;9.70;7.37;;;13.50;63.70;;;;;;5052718;28;20192;-43
2021/10/16 06:00:24;;;;;;;8.27;7.47;;;13.50;63.70;;;;;;5054340;28;20228;-49
2021/10/16 06:02:51;;;;;;;9.63;7.50;;;13.50;63.60;;;;;;5055502;28;20196;-48
2021/10/16 06:05:17;;;;;;;8.47;7.37;;;13.60;63.30;;;;;;5054393;28;20582;-47
2021/10/16 06:07:43;;;;;;;8.20;7.40;;;13.70;62.90;;;;;;5054637;28;20434;-48
2021/10/16 06:10:08;;;;;;;7.60;6.80;;;13.80;62.80;;;;;;5052487;28;20280;-46
2021/10/16 06:12:34;;;;;;;7.07;6.37;;;13.90;62.70;;;;;;5054965;28;20204;-45
2021/10/16 06:15:00;;;;;;;11.67;8.40;;;13.90;62.50;;;;;;5054494;28;20506;-44
2021/10/16 06:17:25;;;;;;;8.60;7.80;;;13.90;62.40;;;;;;5054604;28;20200;-48
2021/10/16 06:19:52;;;;;;;8.23;7.40;;;14.00;62.30;;;;;;5036487;28;20260;-48
2021/10/16 06:22:18;;;;;;;9.33;8.20;;;14.00;62.00;;;;;;5054747;28;20628;-44
2021/10/16 06:24:43;;;;;;;10.07;8.27;;;14.10;62.00;;;;;;5054118;28;20590;-45
2021/10/16 06:27:09;;;;;;;9.90;8.23;;;14.10;61.70;;;;;;5054479;28;20203;-47
2021/10/16 06:29:34;;;;;;;7.80;7.00;;;14.20;61.70;;;;;;5036219;28;20254;-43
2021/10/16 06:32:00;;;;;;;8.00;7.20;;;14.10;61.50;;;;;;5054376;28;20192;-44
2021/10/16 06:34:26;;;;;;;9.27;7.53;;;14.10;61.60;;;;;;5053469;28;20192;-44
2021/10/16 06:36:51;;;;;;;6.93;6.20;;;14.20;61.80;;;;;;5053412;28;20224;-44
2021/10/16 06:39:17;;;;;;;7.83;6.97;;;14.20;61.60;;;;;;5053547;28;20220;-44
2021/10/16 06:41:43;;;;;;;10.30;6.50;;;14.20;61.10;;;;;;5054210;28;20200;-45
2021/10/16 06:44:08;;;;;;;7.57;6.77;;;13.80;62.50;;;;;;5053612;28;20526;-45
2021/10/16 06:46:34;;;;;;;10.93;6.93;;;13.70;63.40;;;;;;5052747;28;20200;-45
2021/10/16 06:48:59;;;;;;;8.70;6.93;;;13.80;63.70;;;;;;5053638;28;20385;-47
2021/10/16 06:51:25;;;;;;;7.57;6.80;;;13.90;63.30;;;;;;5064641;28;20192;-46
2021/10/16 06:53:50;;;;;;;7.50;6.67;;;14.00;62.90;;;;;;5057023;28;20189;-49
2021/10/16 06:56:16;;;;;;;8.63;7.80;;;14.10;62.70;;;;;;5053932;28;20267;-48
2021/10/16 06:58:42;;;;;;;8.37;6.67;;;14.20;62.50;;;;;;5053437;28;20193;-46
2021/10/16 07:01:08;;;;;;;7.33;6.63;;;14.20;62.40;;;;;;5052092;28;20188;-44
2021/10/16 07:03:33;;;;;;;8.43;7.53;;;14.30;62.40;;;;;;5053859;28;20206;-49
2021/10/16 07:05:59;;;;;;;8.47;7.67;;;14.40;62.30;;;;;;5053440;28;20702;-49
2021/10/16 07:08:28;;;;;;;8.20;7.40;;;14.40;62.20;;;;;;5053568;28;20636;-44
2021/10/16 07:10:55;;;;;;;8.83;7.87;;;14.40;62.20;;;;;;5053120;28;20196;-43
2021/10/16 07:13:21;;;;;;;8.60;7.80;;;14.50;62.10;;;;;;5053878;28;20514;-47
2021/10/16 07:15:46;;;;;;;9.03;8.23;;;14.50;61.90;;;;;;5053277;28;20521;-48
2021/10/16 07:18:12;;;;;;;8.87;7.30;;;14.60;61.90;;;;;;5053494;28;20230;-44
2021/10/16 07:20:37;;;;;;;9.57;7.80;;;14.60;61.60;;;;;;5053075;28;20231;-43
2021/10/16 07:23:03;;;;;;;11.33;8.77;;;14.70;61.50;;;;;;5053490;28;20192;-45
2021/10/16 07:25:28;;;;;;;11.13;9.07;;;14.70;61.20;;;;;;5053186;28;20307;-47
2021/10/16 07:27:54;;;;;;;10.00;9.00;;;14.80;61.20;;;;;;5051500;28;20605;-49
2021/10/16 07:30:20;;;;;;;8.67;7.77;;;14.70;61.30;;;;;;5053219;28;20218;-48
2021/10/16 07:32:46;;;;;;;9.00;7.83;;;14.70;61.40;;;;;;5053116;28;20243;-48
2021/10/16 07:35:13;;;;;;;10.27;8.17;;;14.80;61.60;;;;;;5052886;28;20537;-46
2021/10/16 07:37:38;;;;;;;9.10;8.10;;;14.80;61.40;;;;;;5052894;28;20415;-45
2021/10/16 07:40:05;;;;;;;10.00;9.10;;;14.80;61.40;;;;;;5052665;28;20536;-46
2021/10/16 07:42:30;;;;;;;10.70;8.00;;;14.90;61.60;;;;;;5052867;28;20208;-48
2021/10/16 07:44:56;;;;;;;9.50;8.47;;;14.90;61.50;;;;;;5034788;28;20450;-49
2021/10/16 07:47:25;;;;;;;8.53;7.77;;;15.00;61.50;;;;;;5052913;28;20215;-48
2021/10/16 07:49:52;;;;;;;10.63;8.60;;;14.90;61.30;;;;;;5052540;28;20707;-44
2021/10/16 07:52:17;;;;;;;10.10;8.20;;;14.90;61.90;;;;;;5052910;28;20427;-45
2021/10/16 07:54:43;;;;;;;9.60;8.70;;;14.60;62.40;;;;;;5050865;28;20506;-48
2021/10/16 07:57:08;;;;;;;10.57;8.97;;;14.70;62.60;;;;;;5050959;28;20303;-46
2021/10/16 07:59:34;;;;;;;9.23;8.33;;;14.70;62.50;;;;;;5052050;28;20274;-47
2021/10/16 08:01:59;;;;;;;9.60;7.83;;;14.80;62.60;;;;;;5052761;28;20228;-48
2021/10/16 08:04:25;;;;;;;9.47;8.47;;;14.90;62.30;;;;;;5052271;28;20192;-47
2021/10/16 08:06:50;;;;;;;13.80;9.87;;;14.90;62.30;;;;;;5052612;28;20281;-46
2021/10/16 08:09:16;;;;;;;10.33;9.13;;;14.70;62.70;;;;;;5052236;28;20551;-45
2021/10/16 08:11:42;;;;;;;10.77;8.80;;;14.60;63.30;;;;;;5052590;28;20203;-43
2021/10/16 08:14:07;;;;;;;9.27;8.33;;;14.70;63.40;;;;;;5052237;28;20654;-43
2021/10/16 08:16:33;;;;;;;9.97;8.97;;;14.70;63.40;;;;;;5052117;28;20201;-44
2021/10/16 08:18:58;;;;;;;11.07;8.83;;;14.90;62.90;;;;;;5051968;28;20648;-45
2021/10/16 08:21:24;;;;;;;10.77;9.63;;;15.10;62.30;;;;;;5050804;28;20193;-44
2021/10/16 08:23:50;;;;;;;11.13;9.80;;;15.20;61.70;;;;;;5052322;28;20664;-48
2021/10/16 08:26:15;;;;;;;12.10;10.80;;;15.20;61.10;;;;;;5052258;28;20207;-48
2021/10/16 08:28:41;;;;;;;12.00;10.40;;;15.20;60.80;;;;;;5052305;28;20200;-45
2021/10/16 08:31:06;;;;;;;11.37;10.17;;;15.30;61.10;;;;;;5051747;28;20687;-49
2021/10/16 08:33:34;;;;;;;13.10;10.60;;;15.20;60.70;;;;;;5052134;28;20188;-49
2021/10/16 08:36:01;;;;;;;12.03;10.50;;;15.30;60.80;;;;;;5051593;28;20204;-49
2021/10/16 08:38:27;;;;;;;12.90;11.33;;;15.50;60.90;;;;;;5051874;28;20439;-48
2021/10/16 08:40:53;;;;;;;11.57;10.13;;;15.60;60.50;;;;;;5051517;28;20477;-46
2021/10/16 08:43:19;;;;;;;10.47;9.47;;;15.70;60.10;;;;;;5052013;28;21109;-46
2021/10/16 08:45:45;;;;;;;11.77;10.10;;;15.60;59.80;;;;;;5051586;28;20193;-48
2021/10/16 08:48:12;;;;;;;13.40;9.93;;;15.70;59.70;;;;;;5049786;28;20508;-48
2021/10/16 08:50:38;;;;;;;12.17;10.80;;;15.70;60.30;;;;;;5051650;28;20423;-48
2021/10/16 08:53:04;;;;;;;11.90;10.70;;;15.80;59.70;;;;;;5052068;28;20434;-49
2021/10/16 08:55:29;;;;;;;12.50;11.20;;;15.80;59.50;;;;;;5051410;28;20431;-43
2021/10/16 08:57:56;;;;;;;12.93;11.50;;;15.70;59.70;;;;;;5049656;28;20230;-45
2021/10/16 09:00:52;;;;;;;11.97;10.70;;;15.40;59.90;;;;;;5051000;28;20235;-45
2021/10/16 09:03:35;;;;;;;12.10;10.80;;;15.50;60.20;;;;;;5052027;28;20432;-44
2021/10/16 09:06:05;;;;;;;13.30;10.13;;;15.60;60.10;;;;;;5051226;28;20831;-45
2021/10/16 09:08:37;;;;;;;12.40;10.50;;;15.70;59.80;;;;;;5051068;28;20454;-43
2021/10/16 09:11:22;;;;;;;14.30;10.13;;;15.90;59.50;;;;;;5050533;28;20430;-46
2021/10/16 09:13:52;;;;;;;12.10;10.90;;;16.00;59.20;;;;;;5050072;28;20877;-45
2021/10/16 09:16:34;;;;;;;12.10;10.77;;;16.00;59.00;;;;;;5051108;28;20451;-44
2021/10/16 09:19:08;;;;;;;11.23;10.13;;;16.10;58.80;;;;;;5051015;28;20435;-44
2021/10/16 09:21:34;;;;;;;15.60;11.70;;;16.20;58.80;;;;;;5051555;28;20427;-44
2021/10/16 09:24:08;;;;;;;12.53;11.03;;;16.20;58.50;;;;;;5050999;28;20431;-44
2021/10/16 09:26:36;;;;;;;11.63;10.43;;;16.40;58.50;;;;;;5051281;28;20435;-44
2021/10/16 09:29:05;;;;;;;12.30;10.80;;;16.40;58.20;;;;;;5050658;28;20804;-44
2021/10/16 09:31:52;;;;;;;13.80;12.40;;;16.50;58.20;;;;;;5051502;28;20427;-45
2021/10/16 09:34:30;;;;;;;12.70;11.43;;;16.60;58.30;;;;;;5050959;28;20430;-45
2021/10/16 09:37:12;;;;;;;13.80;12.07;;;16.40;58.00;;;;;;5051137;28;20419;-44
2021/10/16 09:39:41;;;;;;;12.53;10.97;;;16.40;58.40;;;;;;5050129;28;20497;-46
2021/10/16 09:42:08;;;;;;;13.07;10.73;;;16.50;58.20;;;;;;5050504;28;20423;-44
2021/10/16 09:44:36;;;;;;;11.93;10.73;;;16.70;58.10;;;;;;5050721;28;20415;-44
2021/10/16 09:47:11;;;;;;;11.07;9.97;;;16.80;57.90;;;;;;5050923;28;20442;-44
2021/10/16 09:49:49;;;;;;;11.57;10.47;;;16.90;57.80;;;;;;5050639;28;20467;-44
2021/10/16 09:52:17;;;;;;;13.07;11.50;;;17.00;57.70;;;;;;5051327;28;20780;-44
2021/10/16 09:54:44;;;;;;;13.30;11.00;;;17.00;57.50;;;;;;5050834;28;20989;-44
2021/10/16 09:57:11;;;;;;;12.23;11.00;;;17.00;57.60;;;;;;5049191;28;20451;-44
2021/10/16 09:59:38;;;;;;;13.20;11.50;;;17.10;57.70;;;;;;5050722;28;20474;-44
2021/10/16 10:02:06;;;;;;;14.57;11.53;;;17.10;57.70;;;;;;5050954;28;20513;-43
2021/10/16 10:04:39;;;;;;;13.63;12.00;;;17.10;57.80;;;;;;5050495;28;20907;-44
2021/10/16 10:07:06;;;;;;;15.10;11.97;;;17.10;57.80;;;;;;5049132;28;20787;-44
2021/10/16 10:09:32;;;;;;;13.20;11.83;;;17.20;57.70;;;;;;5050510;28;20423;-43
2021/10/16 10:11:59;;;;;;;14.37;12.87;;;17.10;57.70;;;;;;5050971;28;20775;-44
2021/10/16 10:14:26;;;;;;;12.40;11.07;;;17.20;57.70;;;;;;5050636;28;20431;-46
2021/10/16 10:16:54;;;;;;;16.40;11.97;;;17.30;57.50;;;;;;5050811;28;20419;-44
2021/10/16 10:19:21;;;;;;;15.13;12.47;;;17.40;57.30;;;;;;5050650;28;20478;-43
2021/10/16 10:21:48;;;;;;;12.87;11.57;;;17.40;57.30;;;;;;5053071;28;20430;-44
2021/10/16 10:24:13;;;;;;;14.80;11.30;;;17.40;57.20;;;;;;5054233;28;20852;-44
2021/10/16 10:26:46;;;;;;;13.00;10.63;;;17.50;57.30;;;;;;5054232;28;20467;-44
2021/10/16 10:29:17;;;;;;;14.10;12.10;;;17.60;57.30;;;;;;5053919;28;20623;-43
2021/10/16 10:31:45;;;;;;;14.30;12.27;;;17.70;57.30;;;;;;5054551;28;20800;-44
2021/10/16 10:34:16;;;;;;;12.63;11.40;;;17.80;57.00;;;;;;5052423;28;20462;-46
2021/10/16 10:36:53;;;;;;;12.90;10.70;;;17.90;56.80;;;;;;5054329;28;20431;-45
2021/10/16 10:39:34;;;;;;;12.97;11.70;;;18.00;56.60;;;;;;5053646;28;20489;-44
2021/10/16 10:42:22;;;;;;;16.60;12.87;;;18.00;57.30;;;;;;5054557;28;20526;-45
2021/10/16 10:44:56;;;;;;;14.27;12.87;;;17.90;56.70;;;;;;5054034;28;20466;-45
2021/10/16 10:47:32;;;;;;;15.27;13.10;;;18.00;56.40;;;;;;5054005;28;20446;-43
2021/10/16 10:50:05;;;;;;;14.20;12.70;;;18.00;56.10;;;;;;5053757;28;20471;-44
2021/10/16 10:52:56;;;;;;;14.93;13.23;;;18.10;56.10;;;;;;5054243;28;20427;-45
2021/10/16 10:55:22;;;;;;;14.30;12.90;;;18.10;56.50;;;;;;5053689;28;20492;-44
2021/10/16 10:57:59;;;;;;;18.70;13.27;;;18.20;56.50;;;;;;5051950;28;20427;-48
2021/10/16 11:00:28;;;;;;;14.77;13.13;;;18.30;56.20;;;;;;5051787;28;20489;-46
2021/10/16 11:02:53;;;;;;;14.87;12.80;;;18.40;56.30;;;;;;5054199;28;20475;-43
2021/10/16 11:05:32;;;;;;;14.97;13.37;;;18.50;55.90;;;;;;5053473;28;20504;-46
2021/10/16 11:08:04;;;;;;;12.67;11.43;;;18.50;55.80;;;;;;5053383;28;20257;-46
2021/10/16 11:10:30;;;;;;;14.17;12.77;;;18.60;55.80;;;;;;5053578;28;20814;-44
2021/10/16 11:12:55;;;;;;;12.73;11.50;;;18.80;56.40;;;;;;5053943;28;20431;-44
2021/10/16 11:15:22;;;;;;;13.37;12.07;;;18.90;55.50;;;;;;5053550;28;20197;-45
2021/10/16 11:17:49;;;;;;;12.93;11.43;;;19.10;55.20;;;;;;5053386;28;20275;-44
2021/10/16 11:20:24;;;;;;;14.10;12.40;;;19.40;54.30;;;;;;5053307;28;20854;-44
2021/10/16 11:22:53;;;;;;;13.30;11.00;;;19.60;53.10;;;;;;5053887;28;20423;-44
2021/10/16 11:25:29;;;;;;;14.97;12.97;;;19.80;53.10;;;;;;5053393;28;20469;-45
2021/10/16 11:28:09;;;;;;;13.53;12.03;;;19.90;53.00;;;;;;5051802;28;20468;-45
2021/10/16 11:30:46;;;;;;;13.83;11.00;;;20.20;51.60;;;;;;5053107;28;20541;-45
2021/10/16 11:33:17;;;;;;;12.43;11.23;;;20.30;51.40;;;;;;5053117;28;20894;-45
2021/10/16 11:35:45;;;;;;;11.90;10.70;;;20.50;51.30;;;;;;5052855;28;20429;-45
2021/10/16 11:38:13;;;;;;;13.10;11.80;;;20.60;50.80;;;;;;5052853;28;20433;-46
2021/10/16 11:40:39;;;;;;;12.47;11.27;;;20.50;50.10;;;;;;5052769;28;20483;-44
2021/10/16 11:43:13;;;;;;;12.30;10.77;;;20.60;50.60;;;;;;5053242;28;20902;-48
2021/10/16 11:45:41;;;;;;;11.37;10.10;;;20.70;50.60;;;;;;5052734;28;20921;-47
2021/10/16 11:48:08;;;;;;;12.23;10.93;;;20.70;49.90;;;;;;5052918;28;20427;-45
2021/10/16 11:50:42;;;;;;;11.50;10.40;;;20.70;49.50;;;;;;5052640;28;20451;-44
2021/10/16 11:53:13;;;;;;;12.17;11.07;;;21.00;49.80;;;;;;5051552;28;20954;-44
2021/10/16 11:55:43;;;;;;;12.93;11.70;;;21.20;49.00;;;;;;5052617;28;20451;-50
2021/10/16 11:58:13;;;;;;;12.43;11.23;;;21.30;48.30;;;;;;5050438;28;20426;-44
2021/10/16 12:00:40;;;;;;;12.63;11.43;;;21.40;48.40;;;;;;5052188;28;20508;-44
2021/10/16 12:03:11;;;;;;;14.00;11.73;;;21.40;48.30;;;;;;5052870;28;20795;-48
2021/10/16 12:05:37;;;;;;;10.40;9.40;;;21.40;47.90;;;;;;5052059;28;20948;-44
2021/10/16 12:08:20;;;;;;;12.00;10.80;;;21.20;48.40;;;;;;5052585;28;20415;-44
2021/10/16 12:10:56;;;;;;;11.77;10.67;;;21.30;49.00;;;;;;5052143;28;20434;-49
2021/10/16 12:13:27;;;;;;;12.20;11.00;;;21.70;48.40;;;;;;5053079;28;20919;-44
2021/10/16 12:15:52;;;;;;;14.27;11.40;;;22.10;49.00;;;;;;5052093;28;20465;-47
2021/10/16 12:18:23;;;;;;;12.47;11.27;;;22.20;49.30;;;;;;5052651;28;20806;-47
2021/10/16 12:20:54;;;;;;;12.67;11.23;;;22.40;49.90;;;;;;5050862;28;20267;-44
2021/10/16 12:23:21;;;;;;;13.67;12.47;;;22.40;49.10;;;;;;5052623;28;20443;-48
2021/10/16 12:25:56;;;;;;;12.87;11.57;;;22.50;48.80;;;;;;5051917;28;20431;-43
2021/10/16 12:28:23;;;;;;;11.37;10.23;;;22.50;47.00;;;;;;5052342;28;20434;-48
2021/10/16 12:31:09;;;;;;;12.83;11.63;;;22.70;48.40;;;;;;5052048;28;20419;-44
2021/10/16 12:33:54;;;;;;;15.47;13.80;;;22.90;47.90;;;;;;5052494;28;20438;-44
2021/10/16 12:36:33;;;;;;;12.87;11.57;;;22.90;47.40;;;;;;5051870;28;20935;-44
2021/10/16 12:39:00;;;;;;;13.80;11.20;;;22.90;47.50;;;;;;5051872;28;20419;-44
2021/10/16 12:41:36;;;;;;;15.37;12.03;;;22.90;47.70;;;;;;5052385;28;20805;-44